sensor_id;sensor_type;location;lat;lon;timestamp;temperature;humidity
69162;DHT22;56269;51.738;21.652;2023-10-09T00:02:12;0.98;91.11
69162;DHT22;56269;51.738;21.652;2023-10-09T00:04:41;0.95;92.17
69162;DHT22;56269;51.738;21.652;2023-10-09T00:07:08;0.91;92.20
69162;DHT22;56269;51.738;21.652;2023-10-09T00:09:35;0.91;92.25
69162;DHT22;56269;51.738;21.652;2023-10-09T00:12:15;0.83;92.41
69162;DHT22;56269;51.738;21.652;2023-10-09T00:14:42;0.49;93.22
69162;DHT22;56269;51.738;21.652;2023-10-09T00:17:19;0.23;94.69
69162;DHT22;56269;51.738;21.652;2023-10-09T00:19:46;0.05;95.33
69162;DHT22;56269;51.738;21.652;2023-10-09T00:22:25;-0.08;95.98
69162;DHT22;56269;51.738;21.652;2023-10-09T00:24:53;-0.26;96.18
69162;DHT22;56269;51.738;21.652;2023-10-09T00:27:38;-0.43;96.30
69162;DHT22;56269;51.738;21.652;2023-10-09T00:30:11;-0.61;96.24
69162;DHT22;56269;51.738;21.652;2023-10-09T00:32:41;-0.71;96.79
69162;DHT22;56269;51.738;21.652;2023-10-09T00:35:11;-0.84;97.36
69162;DHT22;56269;51.738;21.652;2023-10-09T00:38:00;-0.90;97.84
69162;DHT22;56269;51.738;21.652;2023-10-09T00:40:33;-0.90;98.05
69162;DHT22;56269;51.738;21.652;2023-10-09T00:43:02;-0.91;98.56
69162;DHT22;56269;51.738;21.652;2023-10-09T00:45:37;-0.77;98.34
69162;DHT22;56269;51.738;21.652;2023-10-09T00:48:07;-0.61;98.01
69162;DHT22;56269;51.738;21.652;2023-10-09T00:50:35;-0.59;97.71
69162;DHT22;56269;51.738;21.652;2023-10-09T00:53:12;-0.57;97.39
69162;DHT22;56269;51.738;21.652;2023-10-09T00:55:44;-0.64;97.13
69162;DHT22;56269;51.738;21.652;2023-10-09T00:58:12;-0.67;97.33
69162;DHT22;56269;51.738;21.652;2023-10-09T01:00:41;-0.52;97.28
69162;DHT22;56269;51.738;21.652;2023-10-09T01:03:13;-0.22;96.35
69162;DHT22;56269;51.738;21.652;2023-10-09T01:05:47;-0.43;96.27
69162;DHT22;56269;51.738;21.652;2023-10-09T01:08:27;-0.44;96.88
69162;DHT22;56269;51.738;21.652;2023-10-09T01:10:57;-0.48;96.54
69162;DHT22;56269;51.738;21.652;2023-10-09T01:13:34;-0.61;96.71
69162;DHT22;56269;51.738;21.652;2023-10-09T01:16:21;-0.80;96.91
69162;DHT22;56269;51.738;21.652;2023-10-09T01:18:55;-0.88;97.10
69162;DHT22;56269;51.738;21.652;2023-10-09T01:21:25;-1.02;97.62
69162;DHT22;56269;51.738;21.652;2023-10-09T01:23:57;-1.09;97.56
69162;DHT22;56269;51.738;21.652;2023-10-09T01:26:30;-1.07;97.88
69162;DHT22;56269;51.738;21.652;2023-10-09T01:29:06;-1.12;98.52
69162;DHT22;56269;51.738;21.652;2023-10-09T01:31:36;-1.12;98.66
69162;DHT22;56269;51.738;21.652;2023-10-09T01:34:10;-1.09;98.90
69162;DHT22;56269;51.738;21.652;2023-10-09T01:36:39;-1.15;98.71
69162;DHT22;56269;51.738;21.652;2023-10-09T01:39:05;-1.11;98.49
69162;DHT22;56269;51.738;21.652;2023-10-09T01:41:48;-0.88;99.09
69162;DHT22;56269;51.738;21.652;2023-10-09T01:44:15;-0.81;98.70
69162;DHT22;56269;51.738;21.652;2023-10-09T01:46:42;-0.71;98.39
69162;DHT22;56269;51.738;21.652;2023-10-09T01:49:12;-0.83;97.99
69162;DHT22;56269;51.738;21.652;2023-10-09T01:51:47;-0.92;98.22
69162;DHT22;56269;51.738;21.652;2023-10-09T01:54:16;-1.02;98.66
69162;DHT22;56269;51.738;21.652;2023-10-09T01:57:00;-1.05;98.92
69162;DHT22;56269;51.738;21.652;2023-10-09T01:59:46;-1.11;99.15
69162;DHT22;56269;51.738;21.652;2023-10-09T02:02:16;-1.14;99.51
69162;DHT22;56269;51.738;21.652;2023-10-09T02:05:05;-1.21;99.60
69162;DHT22;56269;51.738;21.652;2023-10-09T02:07:38;-1.22;99.66
69162;DHT22;56269;51.738;21.652;2023-10-09T02:10:11;-1.22;99.96
69162;DHT22;56269;51.738;21.652;2023-10-09T02:12:57;-1.27;99.62
69162;DHT22;56269;51.738;21.652;2023-10-09T02:15:28;-1.24;99.88
69162;DHT22;56269;51.738;21.652;2023-10-09T02:18:27;-1.19;99.80
69162;DHT22;56269;51.738;21.652;2023-10-09T02:21:06;-1.11;99.58
69162;DHT22;56269;51.738;21.652;2023-10-09T02:23:34;-1.09;99.44
69162;DHT22;56269;51.738;21.652;2023-10-09T02:26:12;-1.04;99.25
69162;DHT22;56269;51.738;21.652;2023-10-09T02:28:46;-0.95;99.22
69162;DHT22;56269;51.738;21.652;2023-10-09T02:31:35;-0.90;99.14
69162;DHT22;56269;51.738;21.652;2023-10-09T02:34:07;-0.85;99.08
69162;DHT22;56269;51.738;21.652;2023-10-09T02:36:37;-0.83;98.73
69162;DHT22;56269;51.738;21.652;2023-10-09T02:39:16;-0.84;98.88
69162;DHT22;56269;51.738;21.652;2023-10-09T02:41:52;-0.91;98.92
69162;DHT22;56269;51.738;21.652;2023-10-09T02:44:21;-0.87;99.01
69162;DHT22;56269;51.738;21.652;2023-10-09T02:46:52;-0.71;99.07
69162;DHT22;56269;51.738;21.652;2023-10-09T02:49:24;-0.61;98.67
69162;DHT22;56269;51.738;21.652;2023-10-09T02:51:52;-0.54;98.59
69162;DHT22;56269;51.738;21.652;2023-10-09T02:54:23;-0.46;98.28
69162;DHT22;56269;51.738;21.652;2023-10-09T02:56:52;-0.50;98.08
69162;DHT22;56269;51.738;21.652;2023-10-09T02:59:36;-0.50;98.16
69162;DHT22;56269;51.738;21.652;2023-10-09T03:02:07;-0.48;98.23
69162;DHT22;56269;51.738;21.652;2023-10-09T03:04:33;-0.40;98.13
69162;DHT22;56269;51.738;21.652;2023-10-09T03:07:00;-0.29;97.86
69162;DHT22;56269;51.738;21.652;2023-10-09T03:09:27;-0.20;97.45
69162;DHT22;56269;51.738;21.652;2023-10-09T03:12:00;-0.25;97.37
69162;DHT22;56269;51.738;21.652;2023-10-09T03:14:33;-0.25;97.48
69162;DHT22;56269;51.738;21.652;2023-10-09T03:17:01;-0.19;97.41
69162;DHT22;56269;51.738;21.652;2023-10-09T03:19:29;-0.19;97.53
69162;DHT22;56269;51.738;21.652;2023-10-09T03:21:55;-0.15;97.34
69162;DHT22;56269;51.738;21.652;2023-10-09T03:24:28;-0.18;97.43
69162;DHT22;56269;51.738;21.652;2023-10-09T03:26:53;-0.15;97.66
69162;DHT22;56269;51.738;21.652;2023-10-09T03:29:22;-0.08;97.49
69162;DHT22;56269;51.738;21.652;2023-10-09T03:31:48;-0.08;97.27
69162;DHT22;56269;51.738;21.652;2023-10-09T03:34:17;-0.05;97.23
69162;DHT22;56269;51.738;21.652;2023-10-09T03:36:46;-0.10;97.31
69162;DHT22;56269;51.738;21.652;2023-10-09T03:39:14;-0.10;97.46
69162;DHT22;56269;51.738;21.652;2023-10-09T03:41:59;-0.13;97.57
69162;DHT22;56269;51.738;21.652;2023-10-09T03:44:25;-0.12;97.63
69162;DHT22;56269;51.738;21.652;2023-10-09T03:46:56;-0.12;97.67
69162;DHT22;56269;51.738;21.652;2023-10-09T03:49:22;-0.13;97.63
69162;DHT22;56269;51.738;21.652;2023-10-09T03:51:52;-0.12;97.81
69162;DHT22;56269;51.738;21.652;2023-10-09T03:54:19;-0.08;97.61
69162;DHT22;56269;51.738;21.652;2023-10-09T03:56:49;-0.05;97.36
69162;DHT22;56269;51.738;21.652;2023-10-09T03:59:17;-0.05;97.47
69162;DHT22;56269;51.738;21.652;2023-10-09T04:01:46;-0.03;97.43
69162;DHT22;56269;51.738;21.652;2023-10-09T04:04:14;0.01;97.36
69162;DHT22;56269;51.738;21.652;2023-10-09T04:06:40;-0.01;97.40
69162;DHT22;56269;51.738;21.652;2023-10-09T04:09:10;-0.02;97.17
69162;DHT22;56269;51.738;21.652;2023-10-09T04:14:13;-0.03;97.33
69162;DHT22;56269;51.738;21.652;2023-10-09T04:16:52;-0.06;97.49
69162;DHT22;56269;51.738;21.652;2023-10-09T04:19:22;-0.05;97.52
69162;DHT22;56269;51.738;21.652;2023-10-09T04:21:48;0.02;97.49
69162;DHT22;56269;51.738;21.652;2023-10-09T04:24:14;0.08;97.49
69162;DHT22;56269;51.738;21.652;2023-10-09T04:26:42;0.08;97.28
69162;DHT22;56269;51.738;21.652;2023-10-09T04:29:13;0.13;97.06
69162;DHT22;56269;51.738;21.652;2023-10-09T04:32:15;0.13;97.27
69162;DHT22;56269;51.738;21.652;2023-10-09T04:34:44;0.09;97.42
69162;DHT22;56269;51.738;21.652;2023-10-09T04:37:22;0.09;97.86
69162;DHT22;56269;51.738;21.652;2023-10-09T04:40:08;0.09;97.78
69162;DHT22;56269;51.738;21.652;2023-10-09T04:42:39;0.11;98.05
69162;DHT22;56269;51.738;21.652;2023-10-09T04:45:12;0.12;97.99
69162;DHT22;56269;51.738;21.652;2023-10-09T04:47:41;0.13;97.80
69162;DHT22;56269;51.738;21.652;2023-10-09T04:50:16;0.18;97.67
69162;DHT22;56269;51.738;21.652;2023-10-09T04:52:57;0.32;97.27
69162;DHT22;56269;51.738;21.652;2023-10-09T04:55:43;0.38;96.89
69162;DHT22;56269;51.738;21.652;2023-10-09T04:58:24;0.49;96.42
69162;DHT22;56269;51.738;21.652;2023-10-09T05:00:52;0.52;96.58
69162;DHT22;56269;51.738;21.652;2023-10-09T05:03:24;0.56;96.62
69162;DHT22;56269;51.738;21.652;2023-10-09T05:05:54;0.59;96.56
69162;DHT22;56269;51.738;21.652;2023-10-09T05:08:45;0.62;96.21
69162;DHT22;56269;51.738;21.652;2023-10-09T05:11:13;0.62;96.35
69162;DHT22;56269;51.738;21.652;2023-10-09T05:14:02;0.60;96.52
69162;DHT22;56269;51.738;21.652;2023-10-09T05:16:40;0.54;96.69
69162;DHT22;56269;51.738;21.652;2023-10-09T05:19:22;0.53;96.81
69162;DHT22;56269;51.738;21.652;2023-10-09T05:21:55;0.53;96.99
69162;DHT22;56269;51.738;21.652;2023-10-09T05:24:29;0.52;97.32
69162;DHT22;56269;51.738;21.652;2023-10-09T05:27:08;0.50;97.47
69162;DHT22;56269;51.738;21.652;2023-10-09T05:29:43;0.53;97.33
69162;DHT22;56269;51.738;21.652;2023-10-09T05:32:48;0.60;97.19
69162;DHT22;56269;51.738;21.652;2023-10-09T05:35:14;0.62;97.34
69162;DHT22;56269;51.738;21.652;2023-10-09T05:37:46;0.64;97.09
69162;DHT22;56269;51.738;21.652;2023-10-09T05:40:12;0.70;97.12
69162;DHT22;56269;51.738;21.652;2023-10-09T05:42:42;0.79;96.73
69162;DHT22;56269;51.738;21.652;2023-10-09T05:45:13;0.84;96.67
69162;DHT22;56269;51.738;21.652;2023-10-09T05:47:58;0.88;96.53
69162;DHT22;56269;51.738;21.652;2023-10-09T05:50:50;0.87;96.45
69162;DHT22;56269;51.738;21.652;2023-10-09T05:53:34;0.97;96.33
69162;DHT22;56269;51.738;21.652;2023-10-09T05:56:10;0.98;96.27
69162;DHT22;56269;51.738;21.652;2023-10-09T05:58:55;1.01;96.24
69162;DHT22;56269;51.738;21.652;2023-10-09T06:01:30;1.13;96.51
69162;DHT22;56269;51.738;21.652;2023-10-09T06:04:14;1.14;96.34
69162;DHT22;56269;51.738;21.652;2023-10-09T06:06:45;1.20;96.35
69162;DHT22;56269;51.738;21.652;2023-10-09T06:09:13;1.30;96.32
69162;DHT22;56269;51.738;21.652;2023-10-09T06:11:43;1.35;96.52
69162;DHT22;56269;51.738;21.652;2023-10-09T06:14:23;1.42;96.29
69162;DHT22;56269;51.738;21.652;2023-10-09T06:17:12;1.51;95.88
69162;DHT22;56269;51.738;21.652;2023-10-09T06:20:05;1.60;95.50
69162;DHT22;56269;51.738;21.652;2023-10-09T06:22:51;1.67;95.60
69162;DHT22;56269;51.738;21.652;2023-10-09T06:25:23;1.75;95.59
69162;DHT22;56269;51.738;21.652;2023-10-09T06:27:58;1.83;95.59
69162;DHT22;56269;51.738;21.652;2023-10-09T06:30:25;1.99;95.69
69162;DHT22;56269;51.738;21.652;2023-10-09T06:32:52;2.07;95.62
69162;DHT22;56269;51.738;21.652;2023-10-09T06:35:34;2.14;95.33
69162;DHT22;56269;51.738;21.652;2023-10-09T06:38:02;2.30;95.45
69162;DHT22;56269;51.738;21.652;2023-10-09T06:40:37;2.41;94.77
69162;DHT22;56269;51.738;21.652;2023-10-09T06:43:23;2.47;93.85
69162;DHT22;56269;51.738;21.652;2023-10-09T06:45:53;2.62;94.35
69162;DHT22;56269;51.738;21.652;2023-10-09T06:48:37;2.79;94.69
69162;DHT22;56269;51.738;21.652;2023-10-09T06:51:08;2.81;94.27
69162;DHT22;56269;51.738;21.652;2023-10-09T06:54:00;2.87;93.61
69162;DHT22;56269;51.738;21.652;2023-10-09T06:56:33;2.93;94.00
69162;DHT22;56269;51.738;21.652;2023-10-09T06:59:03;2.99;93.73
69162;DHT22;56269;51.738;21.652;2023-10-09T07:01:42;3.12;93.34
69162;DHT22;56269;51.738;21.652;2023-10-09T07:04:30;3.30;93.17
69162;DHT22;56269;51.738;21.652;2023-10-09T07:06:57;3.27;92.85
69162;DHT22;56269;51.738;21.652;2023-10-09T07:09:24;3.26;92.20
69162;DHT22;56269;51.738;21.652;2023-10-09T07:12:09;3.40;92.63
69162;DHT22;56269;51.738;21.652;2023-10-09T07:14:52;3.44;92.35
69162;DHT22;56269;51.738;21.652;2023-10-09T07:17:27;3.57;92.59
69162;DHT22;56269;51.738;21.652;2023-10-09T07:19:59;3.66;91.77
69162;DHT22;56269;51.738;21.652;2023-10-09T07:22:52;3.77;91.51
69162;DHT22;56269;51.738;21.652;2023-10-09T07:25:40;3.81;91.45
69162;DHT22;56269;51.738;21.652;2023-10-09T07:28:09;3.85;91.61
69162;DHT22;56269;51.738;21.652;2023-10-09T07:30:45;3.88;90.67
69162;DHT22;56269;51.738;21.652;2023-10-09T07:33:12;4.04;90.49
69162;DHT22;56269;51.738;21.652;2023-10-09T07:35:41;4.09;89.31
69162;DHT22;56269;51.738;21.652;2023-10-09T07:38:13;4.19;88.68
69162;DHT22;56269;51.738;21.652;2023-10-09T07:40:47;4.23;88.32
69162;DHT22;56269;51.738;21.652;2023-10-09T07:43:46;4.43;89.55
69162;DHT22;56269;51.738;21.652;2023-10-09T07:46:15;4.59;88.15
69162;DHT22;56269;51.738;21.652;2023-10-09T07:49:18;4.72;88.88
69162;DHT22;56269;51.738;21.652;2023-10-09T07:52:03;4.80;87.60
69162;DHT22;56269;51.738;21.652;2023-10-09T07:54:31;5.00;87.47
69162;DHT22;56269;51.738;21.652;2023-10-09T07:56:58;5.41;87.50
69162;DHT22;56269;51.738;21.652;2023-10-09T07:59:43;5.52;85.87
69162;DHT22;56269;51.738;21.652;2023-10-09T08:02:23;5.80;86.46
69162;DHT22;56269;51.738;21.652;2023-10-09T08:05:02;6.06;85.88
69162;DHT22;56269;51.738;21.652;2023-10-09T08:07:31;6.16;83.23
69162;DHT22;56269;51.738;21.652;2023-10-09T08:10:07;6.31;82.52
69162;DHT22;56269;51.738;21.652;2023-10-09T08:12:40;6.20;82.29
69162;DHT22;56269;51.738;21.652;2023-10-09T08:15:17;6.24;83.40
69162;DHT22;56269;51.738;21.652;2023-10-09T08:17:47;6.21;82.60
69162;DHT22;56269;51.738;21.652;2023-10-09T08:20:23;6.29;83.28
69162;DHT22;56269;51.738;21.652;2023-10-09T08:22:53;6.50;83.11
69162;DHT22;56269;51.738;21.652;2023-10-09T08:25:23;6.70;80.98
69162;DHT22;56269;51.738;21.652;2023-10-09T08:27:54;6.72;81.17
69162;DHT22;56269;51.738;21.652;2023-10-09T08:30:22;7.06;81.71
69162;DHT22;56269;51.738;21.652;2023-10-09T08:32:49;7.24;80.98
69162;DHT22;56269;51.738;21.652;2023-10-09T08:35:32;7.56;80.80
69162;DHT22;56269;51.738;21.652;2023-10-09T08:38:00;7.81;78.72
69162;DHT22;56269;51.738;21.652;2023-10-09T08:40:40;8.49;76.30
69162;DHT22;56269;51.738;21.652;2023-10-09T08:43:14;8.91;75.17
69162;DHT22;56269;51.738;21.652;2023-10-09T08:45:47;8.81;74.66
69162;DHT22;56269;51.738;21.652;2023-10-09T08:48:14;8.96;74.69
69162;DHT22;56269;51.738;21.652;2023-10-09T08:50:46;8.65;74.02
69162;DHT22;56269;51.738;21.652;2023-10-09T08:53:13;8.84;74.86
69162;DHT22;56269;51.738;21.652;2023-10-09T08:55:40;8.88;73.91
69162;DHT22;56269;51.738;21.652;2023-10-09T08:58:07;8.81;74.00
69162;DHT22;56269;51.738;21.652;2023-10-09T09:00:47;8.60;73.56
69162;DHT22;56269;51.738;21.652;2023-10-09T09:03:15;8.72;71.87
69162;DHT22;56269;51.738;21.652;2023-10-09T09:05:58;9.21;72.62
69162;DHT22;56269;51.738;21.652;2023-10-09T09:08:30;9.37;71.97
69162;DHT22;56269;51.738;21.652;2023-10-09T09:11:30;9.41;71.36
69162;DHT22;56269;51.738;21.652;2023-10-09T09:16:21;8.96;72.78
69162;DHT22;56269;51.738;21.652;2023-10-09T09:19:01;9.03;71.94
69162;DHT22;56269;51.738;21.652;2023-10-09T09:21:57;9.44;73.01
69162;DHT22;56269;51.738;21.652;2023-10-09T09:24:37;9.48;70.65
69162;DHT22;56269;51.738;21.652;2023-10-09T09:27:05;9.04;71.82
69162;DHT22;56269;51.738;21.652;2023-10-09T09:29:57;9.01;72.93
69162;DHT22;56269;51.738;21.652;2023-10-09T09:32:31;9.00;72.20
69162;DHT22;56269;51.738;21.652;2023-10-09T09:35:04;9.41;71.55
69162;DHT22;56269;51.738;21.652;2023-10-09T09:37:52;9.16;70.29
69162;DHT22;56269;51.738;21.652;2023-10-09T09:40:19;9.13;72.28
69162;DHT22;56269;51.738;21.652;2023-10-09T09:43:00;9.37;70.38
69162;DHT22;56269;51.738;21.652;2023-10-09T09:45:36;9.57;72.18
69162;DHT22;56269;51.738;21.652;2023-10-09T09:48:03;9.47;71.17
69162;DHT22;56269;51.738;21.652;2023-10-09T09:50:40;9.65;71.69
69162;DHT22;56269;51.738;21.652;2023-10-09T09:53:11;9.68;72.05
69162;DHT22;56269;51.738;21.652;2023-10-09T09:55:47;9.32;70.10
69162;DHT22;56269;51.738;21.652;2023-10-09T09:58:18;9.71;70.66
69162;DHT22;56269;51.738;21.652;2023-10-09T10:00:50;9.65;71.01
69162;DHT22;56269;51.738;21.652;2023-10-09T10:03:30;9.99;70.09
69162;DHT22;56269;51.738;21.652;2023-10-09T10:06:00;9.96;68.59
69162;DHT22;56269;51.738;21.652;2023-10-09T10:08:31;9.75;67.49
69162;DHT22;56269;51.738;21.652;2023-10-09T10:10:58;9.69;68.01
69162;DHT22;56269;51.738;21.652;2023-10-09T10:16:13;9.07;69.67
69162;DHT22;56269;51.738;21.652;2023-10-09T10:18:53;9.21;71.42
69162;DHT22;56269;51.738;21.652;2023-10-09T10:21:26;9.30;73.50
69162;DHT22;56269;51.738;21.652;2023-10-09T10:24:00;8.99;72.88
69162;DHT22;56269;51.738;21.652;2023-10-09T10:26:33;8.88;74.64
69162;DHT22;56269;51.738;21.652;2023-10-09T10:29:21;9.03;75.03
69162;DHT22;56269;51.738;21.652;2023-10-09T10:34:24;8.57;73.91
69162;DHT22;56269;51.738;21.652;2023-10-09T10:36:51;8.48;73.34
69162;DHT22;56269;51.738;21.652;2023-10-09T10:39:27;8.39;73.50
69162;DHT22;56269;51.738;21.652;2023-10-09T10:42:14;8.59;73.94
69162;DHT22;56269;51.738;21.652;2023-10-09T10:45:01;8.93;74.64
69162;DHT22;56269;51.738;21.652;2023-10-09T10:47:28;8.87;74.59
69162;DHT22;56269;51.738;21.652;2023-10-09T10:50:01;8.65;73.76
69162;DHT22;56269;51.738;21.652;2023-10-09T10:53:13;8.67;75.94
69162;DHT22;56269;51.738;21.652;2023-10-09T10:55:57;8.80;75.91
69162;DHT22;56269;51.738;21.652;2023-10-09T10:58:23;8.67;75.13
69162;DHT22;56269;51.738;21.652;2023-10-09T11:00:54;8.76;74.94
69162;DHT22;56269;51.738;21.652;2023-10-09T11:03:24;8.66;75.35
69162;DHT22;56269;51.738;21.652;2023-10-09T11:06:02;8.55;75.13
69162;DHT22;56269;51.738;21.652;2023-10-09T11:08:47;8.72;76.14
69162;DHT22;56269;51.738;21.652;2023-10-09T11:11:35;8.75;75.09
69162;DHT22;56269;51.738;21.652;2023-10-09T11:14:13;8.75;76.20
69162;DHT22;56269;51.738;21.652;2023-10-09T11:16:59;8.94;74.67
69162;DHT22;56269;51.738;21.652;2023-10-09T11:19:29;8.77;76.05
69162;DHT22;56269;51.738;21.652;2023-10-09T11:21:58;8.80;76.18
69162;DHT22;56269;51.738;21.652;2023-10-09T11:24:48;8.97;76.46
69162;DHT22;56269;51.738;21.652;2023-10-09T11:27:27;9.01;77.32
69162;DHT22;56269;51.738;21.652;2023-10-09T11:29:58;9.20;76.51
69162;DHT22;56269;51.738;21.652;2023-10-09T11:32:31;8.93;75.81
69162;DHT22;56269;51.738;21.652;2023-10-09T11:35:14;9.30;77.23
69162;DHT22;56269;51.738;21.652;2023-10-09T11:37:55;9.37;77.66
69162;DHT22;56269;51.738;21.652;2023-10-09T11:40:31;9.10;76.74
69162;DHT22;56269;51.738;21.652;2023-10-09T11:43:16;9.00;77.19
69162;DHT22;56269;51.738;21.652;2023-10-09T11:45:42;8.83;76.78
69162;DHT22;56269;51.738;21.652;2023-10-09T11:48:20;8.96;76.80
69162;DHT22;56269;51.738;21.652;2023-10-09T11:51:12;8.80;76.85
69162;DHT22;56269;51.738;21.652;2023-10-09T11:53:45;8.66;76.98
69162;DHT22;56269;51.738;21.652;2023-10-09T11:56:16;8.60;78.53
69162;DHT22;56269;51.738;21.652;2023-10-09T11:58:49;8.63;78.21
69162;DHT22;56269;51.738;21.652;2023-10-09T12:01:24;8.60;77.82
69162;DHT22;56269;51.738;21.652;2023-10-09T12:03:52;8.50;78.45
69162;DHT22;56269;51.738;21.652;2023-10-09T12:06:21;8.49;77.92
69162;DHT22;56269;51.738;21.652;2023-10-09T12:08:56;8.45;78.97
69162;DHT22;56269;51.738;21.652;2023-10-09T12:11:24;8.48;79.70
69162;DHT22;56269;51.738;21.652;2023-10-09T12:13:59;8.39;79.40
69162;DHT22;56269;51.738;21.652;2023-10-09T12:16:26;8.38;79.95
69162;DHT22;56269;51.738;21.652;2023-10-09T12:18:59;8.42;79.77
69162;DHT22;56269;51.738;21.652;2023-10-09T12:21:25;8.46;80.01
69162;DHT22;56269;51.738;21.652;2023-10-09T12:23:54;8.39;79.72
69162;DHT22;56269;51.738;21.652;2023-10-09T12:26:23;8.46;79.32
69162;DHT22;56269;51.738;21.652;2023-10-09T12:28:50;8.65;81.00
69162;DHT22;56269;51.738;21.652;2023-10-09T12:31:16;8.79;79.66
69162;DHT22;56269;51.738;21.652;2023-10-09T12:33:47;8.76;80.42
69162;DHT22;56269;51.738;21.652;2023-10-09T12:36:13;8.80;81.25
69162;DHT22;56269;51.738;21.652;2023-10-09T12:38:47;8.79;79.63
69162;DHT22;56269;51.738;21.652;2023-10-09T12:41:18;8.72;80.04
69162;DHT22;56269;51.738;21.652;2023-10-09T12:43:59;8.76;80.34
69162;DHT22;56269;51.738;21.652;2023-10-09T12:46:25;8.60;79.91
69162;DHT22;56269;51.738;21.652;2023-10-09T12:48:52;8.65;80.34
69162;DHT22;56269;51.738;21.652;2023-10-09T12:51:20;8.59;80.16
69162;DHT22;56269;51.738;21.652;2023-10-09T12:53:51;8.57;80.31
69162;DHT22;56269;51.738;21.652;2023-10-09T12:56:24;8.55;80.07
69162;DHT22;56269;51.738;21.652;2023-10-09T12:59:04;8.55;80.33
69162;DHT22;56269;51.738;21.652;2023-10-09T13:01:33;8.52;80.35
69162;DHT22;56269;51.738;21.652;2023-10-09T13:04:15;8.38;80.53
69162;DHT22;56269;51.738;21.652;2023-10-09T13:06:42;8.34;81.02
69162;DHT22;56269;51.738;21.652;2023-10-09T13:09:14;8.29;81.28
69162;DHT22;56269;51.738;21.652;2023-10-09T13:11:41;8.28;81.16
69162;DHT22;56269;51.738;21.652;2023-10-09T13:14:09;8.34;82.40
69162;DHT22;56269;51.738;21.652;2023-10-09T13:16:48;8.28;82.36
69162;DHT22;56269;51.738;21.652;2023-10-09T13:19:16;8.25;82.09
69162;DHT22;56269;51.738;21.652;2023-10-09T13:21:43;8.24;83.01
69162;DHT22;56269;51.738;21.652;2023-10-09T13:24:10;8.25;82.72
69162;DHT22;56269;51.738;21.652;2023-10-09T13:26:44;8.16;82.38
69162;DHT22;56269;51.738;21.652;2023-10-09T13:29:13;8.11;83.57
69162;DHT22;56269;51.738;21.652;2023-10-09T13:31:39;8.09;83.08
69162;DHT22;56269;51.738;21.652;2023-10-09T13:34:12;8.06;83.11
69162;DHT22;56269;51.738;21.652;2023-10-09T13:36:41;8.05;83.34
69162;DHT22;56269;51.738;21.652;2023-10-09T13:39:21;8.01;83.48
69162;DHT22;56269;51.738;21.652;2023-10-09T13:41:49;7.98;83.07
69162;DHT22;56269;51.738;21.652;2023-10-09T13:44:16;8.01;83.90
69162;DHT22;56269;51.738;21.652;2023-10-09T13:46:42;8.05;83.43
69162;DHT22;56269;51.738;21.652;2023-10-09T13:49:09;8.05;83.56
69162;DHT22;56269;51.738;21.652;2023-10-09T13:51:39;8.04;83.35
69162;DHT22;56269;51.738;21.652;2023-10-09T13:54:11;8.05;84.22
69162;DHT22;56269;51.738;21.652;2023-10-09T13:56:45;8.09;83.88
69162;DHT22;56269;51.738;21.652;2023-10-09T13:59:12;8.04;83.85
69162;DHT22;56269;51.738;21.652;2023-10-09T14:01:38;8.02;83.82
69162;DHT22;56269;51.738;21.652;2023-10-09T14:04:05;8.05;84.82
69162;DHT22;56269;51.738;21.652;2023-10-09T14:06:33;8.02;84.63
69162;DHT22;56269;51.738;21.652;2023-10-09T14:09:01;8.01;84.46
69162;DHT22;56269;51.738;21.652;2023-10-09T14:11:31;8.02;84.95
69162;DHT22;56269;51.738;21.652;2023-10-09T14:13:58;7.97;84.63
69162;DHT22;56269;51.738;21.652;2023-10-09T14:16:27;7.90;84.47
69162;DHT22;56269;51.738;21.652;2023-10-09T14:18:57;7.85;85.23
69162;DHT22;56269;51.738;21.652;2023-10-09T14:21:25;7.88;84.96
69162;DHT22;56269;51.738;21.652;2023-10-09T14:23:52;7.88;85.86
69162;DHT22;56269;51.738;21.652;2023-10-09T14:26:26;7.97;85.34
69162;DHT22;56269;51.738;21.652;2023-10-09T14:28:55;7.99;85.03
69162;DHT22;56269;51.738;21.652;2023-10-09T14:31:24;7.99;85.60
69162;DHT22;56269;51.738;21.652;2023-10-09T14:33:55;7.95;84.91
69162;DHT22;56269;51.738;21.652;2023-10-09T14:36:22;7.95;84.41
69162;DHT22;56269;51.738;21.652;2023-10-09T14:38:50;7.87;85.57
69162;DHT22;56269;51.738;21.652;2023-10-09T14:41:20;7.84;85.21
69162;DHT22;56269;51.738;21.652;2023-10-09T14:43:50;7.83;86.27
69162;DHT22;56269;51.738;21.652;2023-10-09T14:46:17;7.84;85.57
69162;DHT22;56269;51.738;21.652;2023-10-09T14:48:49;7.80;86.02
69162;DHT22;56269;51.738;21.652;2023-10-09T14:51:15;7.78;86.46
69162;DHT22;56269;51.738;21.652;2023-10-09T14:53:41;7.73;86.14
69162;DHT22;56269;51.738;21.652;2023-10-09T14:56:07;7.69;86.45
69162;DHT22;56269;51.738;21.652;2023-10-09T14:58:40;7.70;86.45
69162;DHT22;56269;51.738;21.652;2023-10-09T15:01:08;7.64;86.57
69162;DHT22;56269;51.738;21.652;2023-10-09T15:03:39;7.60;87.23
69162;DHT22;56269;51.738;21.652;2023-10-09T15:06:05;7.63;86.78
69162;DHT22;56269;51.738;21.652;2023-10-09T15:08:36;7.56;87.20
69162;DHT22;56269;51.738;21.652;2023-10-09T15:11:03;7.53;87.97
69162;DHT22;56269;51.738;21.652;2023-10-09T15:13:30;7.50;87.85
69162;DHT22;56269;51.738;21.652;2023-10-09T15:16:00;7.43;88.13
69162;DHT22;56269;51.738;21.652;2023-10-09T15:18:28;7.42;88.39
69162;DHT22;56269;51.738;21.652;2023-10-09T15:20:54;7.39;88.97
69162;DHT22;56269;51.738;21.652;2023-10-09T15:23:20;7.34;88.95
69162;DHT22;56269;51.738;21.652;2023-10-09T15:25:46;7.32;88.80
69162;DHT22;56269;51.738;21.652;2023-10-09T15:28:16;7.26;89.22
69162;DHT22;56269;51.738;21.652;2023-10-09T15:30:43;7.24;89.81
69162;DHT22;56269;51.738;21.652;2023-10-09T15:33:09;7.20;89.28
69162;DHT22;56269;51.738;21.652;2023-10-09T15:35:37;7.20;89.62
69162;DHT22;56269;51.738;21.652;2023-10-09T15:38:04;7.13;89.47
69162;DHT22;56269;51.738;21.652;2023-10-09T15:40:30;7.12;90.22
69162;DHT22;56269;51.738;21.652;2023-10-09T15:43:00;7.08;90.38
69162;DHT22;56269;51.738;21.652;2023-10-09T15:45:26;6.99;90.63
69162;DHT22;56269;51.738;21.652;2023-10-09T15:47:55;6.89;90.67
69162;DHT22;56269;51.738;21.652;2023-10-09T15:50:23;6.85;91.17
69162;DHT22;56269;51.738;21.652;2023-10-09T15:52:53;6.80;91.29
69162;DHT22;56269;51.738;21.652;2023-10-09T15:55:22;6.72;91.25
69162;DHT22;56269;51.738;21.652;2023-10-09T15:57:52;6.58;92.05
69162;DHT22;56269;51.738;21.652;2023-10-09T16:00:18;6.48;92.46
69162;DHT22;56269;51.738;21.652;2023-10-09T16:02:47;6.38;92.81
69162;DHT22;56269;51.738;21.652;2023-10-09T16:05:13;6.23;93.08
69162;DHT22;56269;51.738;21.652;2023-10-09T16:07:42;6.17;93.35
69162;DHT22;56269;51.738;21.652;2023-10-09T16:10:11;6.03;93.63
69162;DHT22;56269;51.738;21.652;2023-10-09T16:12:39;5.96;94.60
69162;DHT22;56269;51.738;21.652;2023-10-09T16:15:07;5.80;95.49
69162;DHT22;56269;51.738;21.652;2023-10-09T16:17:35;5.59;95.72